Time;durP1;ratioP1;P1;durP2;ratioP2;P2;SDS_P1;SDS_P2;PMS_P1;PMS_P2;Temp;Humidity;BMP_temperature;BMP_pressure;BME280_temperature;BME280_humidity;BME280_pressure;Samples;Min_cycle;Max_cycle;Signal;HPM_P1;HPM_P2
2021/12/25 00:00:09;;;;;;;;;;;;;;;4.51;68.75;100516.66;5060484;28;20344;-78
2021/12/25 00:02:36;;;;;;;;;;;;;;;4.48;69.58;100508.66;5055979;28;19920;-78
2021/12/25 00:05:05;;;;;;;;;;;;;;;4.47;70.37;100506.84;5055518;28;20552;-77
2021/12/25 00:07:34;;;;;;;;;;;;;;;4.48;71.13;100514.75;5045448;28;19985;-78
2021/12/25 00:10:00;;;;;;;;;;;;;;;4.48;72.32;100513.88;5075486;28;19927;-78
2021/12/25 00:12:26;;;;;;;;;;;;;;;4.37;73.27;100526.31;5062755;28;19920;-78
2021/12/25 00:14:52;;;;;;;;;;;;;;;4.11;75.52;100522.25;5062729;28;19927;-78
2021/12/25 00:17:17;;;;;;;;;;;;;;;4.08;75.98;100520.34;5062316;28;19925;-78
2021/12/25 00:19:44;;;;;;;;;;;;;;;4.04;75.36;100520.09;5062213;28;19923;-77
2021/12/25 00:22:09;;;;;;;;;;;;;;;4.04;74.44;100522.69;5046192;28;20276;-78
2021/12/25 00:24:35;;;;;;;;;;;;;;;3.94;74.57;100521.28;5066806;28;19931;-77
2021/12/25 00:27:32;;;;;;;;;;;;;;;3.94;74.50;100519.56;5082859;28;20133;-78
2021/12/25 00:33:07;;;;;;;;;;;;;;;3.89;75.50;100520.13;5089465;28;19934;-78
2021/12/25 00:35:32;;;;;;;;;;;;;;;3.88;75.62;100527.03;5081508;28;19920;-78
2021/12/25 00:37:59;;;;;;;;;;;;;;;3.84;76.06;100526.75;5081449;28;19927;-77
2021/12/25 00:40:43;;;;;;;;;;;;;;;3.79;76.17;100529.09;5100411;28;20375;-78
2021/12/25 00:43:08;;;;;;;;;;;;;;;3.69;76.67;100535.47;5066447;28;19924;-77
2021/12/25 00:45:33;;;;;;;;;;;;;;;3.68;75.64;100532.78;5062736;28;20024;-77
2021/12/25 00:48:01;;;;;;;;;;;;;;;3.58;74.54;100529.66;5062457;28;20276;-79
2021/12/25 00:50:26;;;;;;;;;;;;;;;3.53;73.26;100536.28;5062392;28;19966;-78
2021/12/25 00:52:51;;;;;;;;;;;;;;;3.53;71.93;100531.09;5061965;28;20269;-78
2021/12/25 00:55:17;;;;;;;;;;;;;;;3.54;70.89;100529.38;5062564;28;19924;-77
2021/12/25 00:57:43;;;;;;;;;;;;;;;3.52;70.30;100529.28;5062346;28;19920;-77
2021/12/25 01:00:10;;;;;;;;;;;;;;;3.50;70.00;100523.09;5073715;28;20583;-78
2021/12/25 01:02:46;;;;;;;;;;;;;;;3.47;69.73;100522.91;5082384;28;19924;-78
2021/12/25 01:05:13;;;;;;;;;;;;;;;3.46;69.42;100528.91;5100396;28;19927;-77
2021/12/25 01:07:41;;;;;;;;;;;;;;;3.40;69.14;100532.06;5100028;28;19924;-78
2021/12/25 01:10:13;;;;;;;;;;;;;;;3.42;68.86;100527.84;5082250;28;19920;-78
2021/12/25 01:13:23;;;;;;;;;;;;;;;3.39;68.63;100542.41;5082177;28;20249;-78
2021/12/25 01:16:11;;;;;;;;;;;;;;;3.38;68.36;100538.88;5079304;28;20034;-79
2021/12/25 01:50:09;;;;;;;;;;;;;;;3.06;85.85;100536.94;5076665;28;19927;-77
2021/12/25 01:52:37;;;;;;;;;;;;;;;3.02;91.66;100541.06;5073552;28;19931;-77
2021/12/25 01:55:07;;;;;;;;;;;;;;;2.98;99.33;100532.97;5061750;28;19931;-77
2021/12/25 01:57:54;;;;;;;;;;;;;;;2.93;100.00;100531.78;5081564;28;19928;-78
2021/12/25 02:00:22;;;;;;;;;;;;;;;2.97;100.00;100529.47;5059147;28;20353;-79
2021/12/25 02:02:48;;;;;;;;;;;;;;;2.92;100.00;100530.91;5077653;28;20050;-78
2021/12/25 02:05:14;;;;;;;;;;;;;;;2.89;100.00;100538.53;5078712;28;19927;-78
2021/12/25 02:07:42;;;;;;;;;;;;;;;2.91;100.00;100525.63;5065334;28;19920;-78
2021/12/25 02:10:08;;;;;;;;;;;;;;;2.88;100.00;100527.19;5041281;28;20002;-78
2021/12/25 02:12:34;;;;;;;;;;;;;;;2.87;100.00;100522.81;5044074;28;20324;-78
2021/12/25 02:15:21;;;;;;;;;;;;;;;2.88;100.00;100521.13;5082112;28;19920;-78
2021/12/25 02:18:02;;;;;;;;;;;;;;;2.80;100.00;100536.25;5055058;28;19969;-78
2021/12/25 02:20:34;;;;;;;;;;;;;;;2.77;100.00;100530.84;5064190;28;19973;-78
2021/12/25 02:23:03;;;;;;;;;;;;;;;2.74;100.00;100533.25;5093432;28;19920;-78
2021/12/25 02:25:32;;;;;;;;;;;;;;;2.69;100.00;100532.97;5057280;28;19924;-78
2021/12/25 02:28:02;;;;;;;;;;;;;;;2.69;100.00;100538.19;5077034;28;19995;-78
2021/12/25 02:30:28;;;;;;;;;;;;;;;2.63;100.00;100536.91;5071217;28;19920;-78
2021/12/25 02:32:53;;;;;;;;;;;;;;;2.53;100.00;100548.41;5057476;28;19947;-78
2021/12/25 02:35:19;;;;;;;;;;;;;;;2.55;100.00;100538.09;5069959;28;20010;-78
2021/12/25 02:37:47;;;;;;;;;;;;;;;2.53;100.00;100534.50;5064563;28;20390;-78
2021/12/25 02:40:14;;;;;;;;;;;;;;;2.51;100.00;100540.50;5063295;28;19920;-78
2021/12/25 02:42:40;;;;;;;;;;;;;;;2.44;100.00;100547.81;5062690;28;20349;-78
2021/12/25 02:45:07;;;;;;;;;;;;;;;2.44;100.00;100545.22;5092099;28;19924;-78
2021/12/25 02:47:36;;;;;;;;;;;;;;;2.34;100.00;100552.41;5059021;28;20577;-78
2021/12/25 02:50:01;;;;;;;;;;;;;;;2.24;100.00;100550.06;5089878;28;20015;-78
2021/12/25 02:52:27;;;;;;;;;;;;;;;2.22;100.00;100553.34;5076716;28;20357;-78
2021/12/25 02:54:52;;;;;;;;;;;;;;;2.17;100.00;100557.34;5076406;28;19920;-78
2021/12/25 02:57:18;;;;;;;;;;;;;;;2.19;100.00;100558.34;5062133;28;20011;-78
2021/12/25 02:59:44;;;;;;;;;;;;;;;2.12;100.00;100554.44;5064366;28;19944;-78
2021/12/25 03:02:14;;;;;;;;;;;;;;;2.11;100.00;100563.97;5056171;28;19971;-78
2021/12/25 03:04:41;;;;;;;;;;;;;;;2.11;100.00;100558.75;5063602;28;20380;-78
2021/12/25 03:07:07;;;;;;;;;;;;;;;2.00;100.00;100562.34;5075718;28;19927;-78
2021/12/25 03:09:32;;;;;;;;;;;;;;;2.04;100.00;100563.47;5060113;28;19920;-79
2021/12/25 03:11:58;;;;;;;;;;;;;;;1.95;100.00;100566.34;5091086;28;19920;-77
2021/12/25 03:14:33;;;;;;;;;;;;;;;1.92;100.00;100566.13;5057653;28;19920;-77
2021/12/25 03:17:00;;;;;;;;;;;;;;;1.87;100.00;100559.75;5074656;28;19920;-77
2021/12/25 03:19:32;;;;;;;;;;;;;;;1.83;100.00;100570.72;5069702;28;19927;-77
2021/12/25 03:22:00;;;;;;;;;;;;;;;1.85;100.00;100563.91;5075623;28;19944;-77
2021/12/25 03:24:26;;;;;;;;;;;;;;;1.78;100.00;100579.09;5063713;28;19924;-78
2021/12/25 03:26:54;;;;;;;;;;;;;;;1.76;100.00;100575.50;5058843;28;19928;-77
2021/12/25 03:29:21;;;;;;;;;;;;;;;1.76;100.00;100572.91;5074750;28;19920;-77
2021/12/25 03:31:47;;;;;;;;;;;;;;;1.74;100.00;100579.69;5073897;28;20022;-79
2021/12/25 03:34:12;;;;;;;;;;;;;;;1.76;100.00;100575.50;5057569;28;20479;-77
2021/12/25 03:36:38;;;;;;;;;;;;;;;1.71;100.00;100584.69;5053744;28;19932;-77
2021/12/25 03:39:07;;;;;;;;;;;;;;;1.74;100.00;100587.50;5069162;28;19927;-77
2021/12/25 03:41:33;;;;;;;;;;;;;;;1.70;100.00;100587.19;5073336;28;20368;-77
2021/12/25 03:44:00;;;;;;;;;;;;;;;1.74;100.00;100591.75;5064051;28;19921;-77
2021/12/25 03:46:28;;;;;;;;;;;;;;;1.64;100.00;100599.75;5060820;28;19924;-78
2021/12/25 03:49:04;;;;;;;;;;;;;;;1.63;100.00;100593.63;5064502;28;20249;-78
2021/12/25 03:59:53;;;;;;;;;;;;;;;1.53;100.00;100591.22;5082498;28;19926;-77
2021/12/25 04:02:24;;;;;;;;;;;;;;;1.53;100.00;100599.03;5067040;28;19925;-77
2021/12/25 04:04:50;;;;;;;;;;;;;;;1.51;100.00;100605.78;5055010;28;20019;-78
2021/12/25 04:10:04;;;;;;;;;;;;;;;1.51;100.00;100609.28;5058145;28;20281;-77
2021/12/25 04:12:30;;;;;;;;;;;;;;;1.50;100.00;100612.66;5072877;28;19921;-77
2021/12/25 04:14:55;;;;;;;;;;;;;;;1.48;100.00;100623.75;5066750;28;19924;-76
2021/12/25 04:17:21;;;;;;;;;;;;;;;1.46;100.00;100628.84;5043407;28;19921;-77
2021/12/25 04:19:48;;;;;;;;;;;;;;;1.46;100.00;100633.13;5049082;28;20043;-78
2021/12/25 04:22:19;;;;;;;;;;;;;;;1.48;100.00;100635.03;5036668;28;19975;-78
2021/12/25 04:24:47;;;;;;;;;;;;;;;1.43;100.00;100639.03;5052733;28;19924;-78
2021/12/25 04:27:15;;;;;;;;;;;;;;;1.40;100.00;100651.78;5065911;28;19920;-78
2021/12/25 04:29:51;;;;;;;;;;;;;;;1.41;100.00;100643.19;5048740;28;19924;-76
2021/12/25 05:02:43;;;;;;;;;;;;;;;1.16;100.00;100695.03;5081840;28;19927;-79
2021/12/25 05:05:14;;;;;;;;;;;;;;;1.16;100.00;100715.78;5085868;28;19920;-77
2021/12/25 05:07:39;;;;;;;;;;;;;;;1.15;100.00;100711.38;5069972;28;20007;-76
2021/12/25 05:10:05;;;;;;;;;;;;;;;1.06;100.00;100707.34;5071452;28;19962;-78
2021/12/25 05:12:30;;;;;;;;;;;;;;;1.09;100.00;100714.47;5068968;28;19929;-78
2021/12/25 05:14:55;;;;;;;;;;;;;;;1.08;100.00;100730.81;5066017;28;19927;-78
2021/12/25 05:17:24;;;;;;;;;;;;;;;1.08;100.00;100728.22;5077339;28;20399;-78
2021/12/25 05:19:49;;;;;;;;;;;;;;;1.10;100.00;100742.19;5061681;28;19925;-77
2021/12/25 05:22:17;;;;;;;;;;;;;;;1.10;100.00;100733.50;5078899;28;19931;-77
2021/12/25 05:24:44;;;;;;;;;;;;;;;1.10;100.00;100739.59;5059059;28;20356;-77
2021/12/25 05:27:12;;;;;;;;;;;;;;;1.12;100.00;100737.09;5076929;28;19924;-77
2021/12/25 05:29:41;;;;;;;;;;;;;;;1.14;100.00;100732.94;5045333;28;19932;-77
2021/12/25 05:32:06;;;;;;;;;;;;;;;1.14;100.00;100745.91;5069436;28;20622;-78
2021/12/25 05:34:32;;;;;;;;;;;;;;;1.08;100.00;100752.44;5073645;28;19920;-78
2021/12/25 05:36:58;;;;;;;;;;;;;;;1.02;100.00;100759.78;5058800;28;19990;-78
2021/12/25 05:39:24;;;;;;;;;;;;;;;0.95;100.00;100765.34;5077731;28;20544;-78
2021/12/25 05:41:50;;;;;;;;;;;;;;;0.98;100.00;100777.59;5072451;28;19920;-77
2021/12/25 05:44:16;;;;;;;;;;;;;;;0.92;100.00;100756.41;5083474;28;19957;-77
2021/12/25 05:46:41;;;;;;;;;;;;;;;0.93;100.00;100771.19;5077304;28;20318;-77
2021/12/25 05:49:11;;;;;;;;;;;;;;;0.86;100.00;100770.72;5074075;28;20348;-77
2021/12/25 05:51:36;;;;;;;;;;;;;;;0.82;100.00;100773.88;5058292;28;19920;-78
2021/12/25 05:54:02;;;;;;;;;;;;;;;0.84;100.00;100781.75;5063192;28;20269;-79
2021/12/25 05:56:27;;;;;;;;;;;;;;;0.78;100.00;100784.81;5071446;28;19920;-77
2021/12/25 05:58:53;;;;;;;;;;;;;;;0.69;100.00;100779.84;5053531;28;20065;-77
2021/12/25 06:01:19;;;;;;;;;;;;;;;0.70;100.00;100799.81;5060360;28;20007;-77
2021/12/25 06:03:44;;;;;;;;;;;;;;;0.58;100.00;100819.63;5055104;28;20005;-77
2021/12/25 06:06:10;;;;;;;;;;;;;;;0.63;100.00;100800.13;5049305;28;20026;-77
2021/12/25 06:08:45;;;;;;;;;;;;;;;0.59;100.00;100811.06;5071240;28;19928;-78
2021/12/25 06:11:10;;;;;;;;;;;;;;;0.58;100.00;100798.91;5050076;28;19921;-77
2021/12/25 06:13:44;;;;;;;;;;;;;;;0.56;100.00;100813.44;5049506;28;19921;-79
2021/12/25 06:16:09;;;;;;;;;;;;;;;0.61;100.00;100813.78;5056301;28;20003;-77
2021/12/25 06:18:34;;;;;;;;;;;;;;;0.52;100.00;100809.69;5037711;28;19964;-77
2021/12/25 06:21:00;;;;;;;;;;;;;;;0.52;100.00;100814.88;5054678;28;20281;-79
2021/12/25 06:23:26;;;;;;;;;;;;;;;0.50;100.00;100806.09;5049366;28;19921;-78
2021/12/25 06:25:52;;;;;;;;;;;;;;;0.52;100.00;100812.28;5042922;28;19924;-77
2021/12/25 06:28:19;;;;;;;;;;;;;;;0.49;100.00;100818.94;5046963;28;19921;-76
2021/12/25 06:30:49;;;;;;;;;;;;;;;0.48;100.00;100822.28;5042291;28;20027;-76
2021/12/25 06:33:15;;;;;;;;;;;;;;;0.47;100.00;100824.00;5037730;28;19928;-77
2021/12/25 06:35:40;;;;;;;;;;;;;;;0.41;100.00;100826.13;5050434;28;19986;-77
2021/12/25 06:38:06;;;;;;;;;;;;;;;0.41;100.00;100815.75;5055864;28;19924;-77
2021/12/25 06:40:33;;;;;;;;;;;;;;;0.35;100.00;100817.88;5063310;28;19955;-77
2021/12/25 06:42:58;;;;;;;;;;;;;;;0.40;100.00;100819.13;5038995;28;20411;-77
2021/12/25 06:45:24;;;;;;;;;;;;;;;0.38;100.00;100830.19;5037841;28;20380;-77
2021/12/25 06:47:52;;;;;;;;;;;;;;;0.40;100.00;100824.31;5042948;28;19924;-78
2021/12/25 06:50:17;;;;;;;;;;;;;;;0.35;100.00;100830.84;5050177;28;19921;-77
2021/12/25 06:52:45;;;;;;;;;;;;;;;0.28;100.00;100829.47;5053278;28;19927;-77
2021/12/25 06:55:11;;;;;;;;;;;;;;;0.22;100.00;100825.47;5055766;28;20253;-77
2021/12/25 06:57:45;;;;;;;;;;;;;;;0.18;100.00;100832.13;5040198;28;19974;-77
2021/12/25 07:00:14;;;;;;;;;;;;;;;0.14;100.00;100827.47;5025008;28;19954;-76
2021/12/25 07:02:39;;;;;;;;;;;;;;;0.06;100.00;100841.53;5064999;28;20167;-77
2021/12/25 07:05:05;;;;;;;;;;;;;;;0.05;100.00;100851.00;5063083;28;19928;-78
2021/12/25 07:07:37;;;;;;;;;;;;;;;-0.09;100.00;100844.75;5068853;28;19956;-78
2021/12/25 07:10:04;;;;;;;;;;;;;;;-0.16;100.00;100847.63;5053203;28;19925;-77
2021/12/25 07:12:32;;;;;;;;;;;;;;;-0.19;100.00;100852.56;5056709;28;19927;-77
2021/12/25 07:14:57;;;;;;;;;;;;;;;-0.20;100.00;100851.66;5058779;28;19920;-77
2021/12/25 07:17:22;;;;;;;;;;;;;;;-0.19;100.00;100856.06;5054712;28;19974;-77
2021/12/25 07:19:48;;;;;;;;;;;;;;;-0.23;100.00;100856.59;5056534;28;20372;-78
2021/12/25 07:22:13;;;;;;;;;;;;;;;-0.26;100.00;100850.28;5044507;28;19932;-77
2021/12/25 07:24:39;;;;;;;;;;;;;;;-0.33;100.00;100853.16;5036630;28;20273;-78
2021/12/25 07:27:05;;;;;;;;;;;;;;;-0.38;100.00;100865.72;5062000;28;19931;-77
2021/12/25 07:29:31;;;;;;;;;;;;;;;-0.42;100.00;100864.59;5069754;28;19921;-77
2021/12/25 07:31:57;;;;;;;;;;;;;;;-0.53;100.00;100883.50;5054631;28;20268;-79
2021/12/25 07:34:23;;;;;;;;;;;;;;;-0.59;100.00;100871.00;5057517;28;19921;-78
2021/12/25 07:36:48;;;;;;;;;;;;;;;-0.66;100.00;100875.53;5050025;28;19924;-78
2021/12/25 07:39:14;;;;;;;;;;;;;;;-0.65;100.00;100880.84;5064291;28;19924;-78
2021/12/25 07:41:39;;;;;;;;;;;;;;;-0.80;100.00;100877.91;5060242;28;20003;-78
2021/12/25 07:44:05;;;;;;;;;;;;;;;-0.91;100.00;100886.47;5061147;28;19956;-78
2021/12/25 07:46:30;;;;;;;;;;;;;;;-1.01;100.00;100894.22;5036205;28;19986;-79
2021/12/25 07:48:58;;;;;;;;;;;;;;;-1.05;100.00;100889.59;5052572;28;20027;-78
2021/12/25 07:51:23;;;;;;;;;;;;;;;-1.12;100.00;100890.75;5053509;28;20211;-78
2021/12/25 07:53:49;;;;;;;;;;;;;;;-1.22;100.00;100883.94;5051830;28;19920;-76
2021/12/25 07:56:14;;;;;;;;;;;;;;;-1.20;100.00;100895.28;5052919;28;19955;-75
2021/12/25 07:58:42;;;;;;;;;;;;;;;-1.30;100.00;100896.19;5062455;28;20010;-76
2021/12/25 08:01:07;;;;;;;;;;;;;;;-1.30;100.00;100903.94;5073478;28;19927;-77
2021/12/25 08:03:35;;;;;;;;;;;;;;;-1.34;100.00;100909.63;5067858;28;19921;-77
2021/12/25 08:06:00;;;;;;;;;;;;;;;-1.33;100.00;100908.88;5066027;28;19927;-77
2021/12/25 08:08:29;;;;;;;;;;;;;;;-1.33;100.00;100901.13;5069889;28;19920;-77
2021/12/25 08:10:56;;;;;;;;;;;;;;;-1.35;100.00;100905.25;5073128;28;19951;-77
2021/12/25 08:13:21;;;;;;;;;;;;;;;-1.36;100.00;100902.53;5076200;28;20272;-77
2021/12/25 08:15:46;;;;;;;;;;;;;;;-1.38;100.00;100904.06;5069914;28;19926;-77
2021/12/25 08:18:12;;;;;;;;;;;;;;;-1.38;100.00;100906.66;5075083;28;20341;-76
2021/12/25 08:20:37;;;;;;;;;;;;;;;-1.40;100.00;100913.38;5072947;28;19928;-76
2021/12/25 08:23:03;;;;;;;;;;;;;;;-1.43;100.00;100913.13;5074626;28;20322;-76
2021/12/25 08:25:28;;;;;;;;;;;;;;;-1.49;100.00;100917.00;5088081;28;19919;-76
2021/12/25 08:27:55;;;;;;;;;;;;;;;-1.55;100.00;100919.06;5069275;28;19920;-77
2021/12/25 08:30:22;;;;;;;;;;;;;;;-1.56;100.00;100921.50;5073192;28;19928;-77
2021/12/25 08:32:50;;;;;;;;;;;;;;;-1.67;100.00;100925.75;5060581;28;20349;-77
2021/12/25 08:35:16;;;;;;;;;;;;;;;-1.72;100.00;100924.47;5059241;28;20353;-77
2021/12/25 08:37:51;;;;;;;;;;;;;;;-1.76;100.00;100933.59;5074316;28;19920;-77
2021/12/25 08:40:17;;;;;;;;;;;;;;;-1.81;100.00;100937.47;5079601;28;19920;-77
2021/12/25 08:42:49;;;;;;;;;;;;;;;-1.82;100.00;100946.91;5058511;28;20736;-77
2021/12/25 08:48:02;;;;;;;;;;;;;;;-1.83;100.00;100942.50;5083409;28;20012;-76
2021/12/25 08:50:27;;;;;;;;;;;;;;;-1.85;100.00;100951.81;5079194;28;19927;-77
2021/12/25 08:52:53;;;;;;;;;;;;;;;-1.85;100.00;100956.03;5100453;28;19920;-77
2021/12/25 08:55:18;;;;;;;;;;;;;;;-1.90;100.00;100970.22;5078950;28;19920;-77
2021/12/25 08:57:50;;;;;;;;;;;;;;;-1.88;100.00;100966.09;5087483;28;19920;-77
2021/12/25 09:00:15;;;;;;;;;;;;;;;-1.90;100.00;100970.22;5078646;28;20232;-77
2021/12/25 09:02:41;;;;;;;;;;;;;;;-1.87;100.00;100968.81;5079098;28;19920;-77
2021/12/25 09:05:07;;;;;;;;;;;;;;;-1.86;100.00;100968.06;5082691;28;19935;-76
2021/12/25 09:07:36;;;;;;;;;;;;;;;-1.91;100.00;100971.91;5076888;28;20379;-76
2021/12/25 09:10:01;;;;;;;;;;;;;;;-1.89;100.00;100970.38;5079273;28;20038;-78
2021/12/25 09:12:28;;;;;;;;;;;;;;;-1.90;100.00;100977.97;5067125;28;20400;-76
2021/12/25 09:14:53;;;;;;;;;;;;;;;-1.89;100.00;100972.06;5081776;28;19923;-76
2021/12/25 09:17:21;;;;;;;;;;;;;;;-1.93;100.00;100975.13;5055066;28;20012;-76
2021/12/25 09:19:46;;;;;;;;;;;;;;;-1.96;100.00;100974.84;5063811;28;19928;-75
2021/12/25 09:22:12;;;;;;;;;;;;;;;-1.91;100.00;100971.00;5057810;28;19921;-76
2021/12/25 09:24:39;;;;;;;;;;;;;;;-1.93;100.00;100969.97;5063803;28;19976;-76
2021/12/25 09:27:06;;;;;;;;;;;;;;;-1.99;100.00;100972.91;5104631;28;20284;-76
2021/12/25 09:29:32;;;;;;;;;;;;;;;-1.95;100.00;100969.84;5086182;28;19955;-77
2021/12/25 09:31:57;;;;;;;;;;;;;;;-1.96;100.00;100967.13;5077493;28;20335;-77
2021/12/25 09:34:22;;;;;;;;;;;;;;;-1.97;100.00;100966.22;5058070;28;19924;-77
2021/12/25 09:36:48;;;;;;;;;;;;;;;-2.04;100.00;100974.19;5083251;28;19920;-77
2021/12/25 09:39:13;;;;;;;;;;;;;;;-2.08;100.00;100975.59;5077528;28;20006;-77
2021/12/25 09:41:40;;;;;;;;;;;;;;;-2.13;100.00;100978.53;5079044;28;19944;-78
2021/12/25 09:44:05;;;;;;;;;;;;;;;-2.15;100.00;100980.97;5062932;28;19928;-78
2021/12/25 09:46:31;;;;;;;;;;;;;;;-2.12;100.00;100981.25;5077197;28;20194;-77
2021/12/25 09:48:59;;;;;;;;;;;;;;;-2.01;100.00;100971.88;5074776;28;19950;-77
2021/12/25 09:51:24;;;;;;;;;;;;;;;-1.93;100.00;100973.44;5071200;28;19973;-77
2021/12/25 09:54:06;;;;;;;;;;;;;;;-1.98;100.00;100990.22;5070116;28;19916;-77
2021/12/25 09:56:32;;;;;;;;;;;;;;;-1.98;100.00;100969.56;5063005;28;19920;-77
2021/12/25 09:58:58;;;;;;;;;;;;;;;-2.00;100.00;100981.44;5088113;28;19924;-78
2021/12/25 10:01:42;;;;;;;;;;;;;;;-1.95;100.00;100985.31;5057672;28;20398;-77
2021/12/25 10:04:09;;;;;;;;;;;;;;;-1.90;100.00;100990.88;5067909;28;20029;-76
2021/12/25 10:06:35;;;;;;;;;;;;;;;-1.83;100.00;100991.56;5087346;28;19996;-75
2021/12/25 10:09:12;;;;;;;;;;;;;;;-1.91;100.00;100992.56;5084127;28;20334;-77
2021/12/25 10:11:37;;;;;;;;;;;;;;;-1.92;100.00;101001.06;5081577;28;19920;-77
2021/12/25 10:14:03;;;;;;;;;;;;;;;-1.94;100.00;101001.69;5076608;28;19928;-77
2021/12/25 10:16:31;;;;;;;;;;;;;;;-1.96;100.00;100998.09;5096120;28;20306;-77
2021/12/25 10:19:20;;;;;;;;;;;;;;;-2.09;100.00;100993.53;5075396;28;20023;-77
2021/12/25 10:21:48;;;;;;;;;;;;;;;-2.00;100.00;101002.09;5070832;28;19947;-76
2021/12/25 10:24:25;;;;;;;;;;;;;;;-2.01;100.00;101001.16;5066202;28;19966;-77
2021/12/25 10:26:51;;;;;;;;;;;;;;;-1.92;100.00;100993.31;5077354;28;19924;-78
2021/12/25 10:29:25;;;;;;;;;;;;;;;-1.94;100.00;100996.53;5085964;28;19927;-77
2021/12/25 10:31:54;;;;;;;;;;;;;;;-1.86;100.00;100996.44;5062057;28;19920;-78
2021/12/25 10:34:26;;;;;;;;;;;;;;;-1.85;100.00;100997.34;5086739;28;19924;-77
2021/12/25 10:36:52;;;;;;;;;;;;;;;-1.87;100.00;100997.22;5068191;28;19927;-77
2021/12/25 10:39:20;;;;;;;;;;;;;;;-1.84;100.00;100999.16;5075084;28;19920;-77
2021/12/25 10:41:57;;;;;;;;;;;;;;;-1.81;100.00;101002.00;5084650;28;19920;-76
2021/12/25 10:44:24;;;;;;;;;;;;;;;-1.71;100.00;101006.28;5086455;28;19920;-77
2021/12/25 10:46:52;;;;;;;;;;;;;;;-1.71;100.00;100993.38;5082337;28;20320;-77
2021/12/25 10:49:19;;;;;;;;;;;;;;;-1.75;100.00;100984.47;5074115;28;19931;-76
2021/12/25 10:51:45;;;;;;;;;;;;;;;-1.73;100.00;101005.28;5079360;28;19920;-77
2021/12/25 10:54:13;;;;;;;;;;;;;;;-1.71;100.00;100983.06;5060464;28;19931;-76
2021/12/25 10:56:41;;;;;;;;;;;;;;;-1.70;100.00;100983.19;5079474;28;19920;-77
2021/12/25 10:59:13;;;;;;;;;;;;;;;-1.59;100.00;100991.88;5074372;28;19920;-76
2021/12/25 11:01:46;;;;;;;;;;;;;;;-1.51;100.00;100980.56;5067746;28;19963;-76
2021/12/25 11:04:39;;;;;;;;;;;;;;;-1.42;100.00;100985.56;5085163;28;20339;-77
2021/12/25 11:07:15;;;;;;;;;;;;;;;-1.37;100.00;100989.44;5066350;28;19924;-76
2021/12/25 11:10:00;;;;;;;;;;;;;;;-1.24;100.00;100982.75;5077057;28;19963;-77
2021/12/25 11:12:25;;;;;;;;;;;;;;;-1.33;100.00;100980.31;5070665;28;19928;-76
2021/12/25 11:15:07;;;;;;;;;;;;;;;-1.28;100.00;100973.84;5083829;28;19920;-78
2021/12/25 11:17:35;;;;;;;;;;;;;;;-1.30;100.00;100971.13;5073198;28;19955;-78
2021/12/25 11:20:01;;;;;;;;;;;;;;;-1.21;100.00;100976.19;5090744;28;19966;-79
2021/12/25 11:22:44;;;;;;;;;;;;;;;-1.27;100.00;100970.50;5090252;28;20286;-77
2021/12/25 11:25:09;;;;;;;;;;;;;;;-1.28;100.00;100964.41;5060222;28;19974;-77
2021/12/25 11:27:36;;;;;;;;;;;;;;;-1.40;100.00;100965.94;5070121;28;19924;-78
2021/12/25 11:30:02;;;;;;;;;;;;;;;-1.43;100.00;100970.84;5076925;28;19982;-78
2021/12/25 11:32:27;;;;;;;;;;;;;;;-1.55;100.00;100952.63;5084863;28;19924;-78
2021/12/25 11:34:52;;;;;;;;;;;;;;;-1.56;100.00;100950.81;5061492;28;19920;-77
2021/12/25 11:37:18;;;;;;;;;;;;;;;-1.50;100.00;100951.34;5065456;28;19935;-78
2021/12/25 11:39:44;;;;;;;;;;;;;;;-1.47;100.00;100961.94;5068563;28;19967;-78
2021/12/25 11:42:10;;;;;;;;;;;;;;;-1.43;100.00;100959.63;5091774;28;19927;-78
2021/12/25 11:44:46;;;;;;;;;;;;;;;-1.45;100.00;100952.63;5083768;28;19920;-78
2021/12/25 11:47:31;;;;;;;;;;;;;;;-1.40;100.00;100955.59;5090180;28;19920;-78
2021/12/25 11:49:58;;;;;;;;;;;;;;;-1.42;100.00;100961.44;5074472;28;20439;-78
2021/12/25 11:52:30;;;;;;;;;;;;;;;-1.40;100.00;100941.78;5076412;28;19920;-78
2021/12/25 11:55:22;;;;;;;;;;;;;;;-1.36;100.00;100939.59;5094778;28;19949;-78
2021/12/25 12:00:46;;;;;;;;;;;;;;;-1.27;100.00;100945.56;5092883;28;19966;-78
2021/12/25 12:03:31;;;;;;;;;;;;;;;-1.19;100.00;100942.72;5075922;28;19921;-78
2021/12/25 12:05:57;;;;;;;;;;;;;;;-1.16;100.00;100941.28;5050900;28;19920;-78
2021/12/25 12:08:25;;;;;;;;;;;;;;;-1.09;100.00;100942.69;5072776;28;20483;-78
2021/12/25 12:10:51;;;;;;;;;;;;;;;-0.93;100.00;100942.31;5076984;28;19945;-78
2021/12/25 12:13:21;;;;;;;;;;;;;;;-0.89;100.00;100938.31;5039728;28;19931;-78
2021/12/25 12:15:50;;;;;;;;;;;;;;;-0.81;100.00;100939.81;5084544;28;19926;-78
2021/12/25 12:18:31;;;;;;;;;;;;;;;-0.79;100.00;100921.09;5055624;28;19929;-78
2021/12/25 12:21:05;;;;;;;;;;;;;;;-0.68;100.00;100927.16;5055348;28;19921;-78
2021/12/25 12:24:07;;;;;;;;;;;;;;;-0.64;100.00;100928.28;5055527;28;19921;-78
2021/12/25 12:26:39;;;;;;;;;;;;;;;-0.60;100.00;100928.66;5075987;28;19927;-77
2021/12/25 12:29:04;;;;;;;;;;;;;;;-0.68;100.00;100927.16;5090400;28;20414;-78
2021/12/25 12:31:32;;;;;;;;;;;;;;;-0.68;100.00;100914.22;5066570;28;19952;-78
2021/12/25 12:33:58;;;;;;;;;;;;;;;-0.56;100.00;100925.56;5089615;28;19928;-80
2021/12/25 12:36:25;;;;;;;;;;;;;;;-0.60;100.00;100922.59;5064435;28;19928;-79
2021/12/25 12:38:58;;;;;;;;;;;;;;;-0.60;100.00;100909.66;5057121;28;19928;-78
2021/12/25 12:41:37;;;;;;;;;;;;;;;-0.61;100.00;100918.19;5091515;28;19973;-78
2021/12/25 12:44:16;;;;;;;;;;;;;;;-0.62;100.00;100924.13;5089026;28;19927;-77
2021/12/25 12:46:47;;;;;;;;;;;;;;;-0.65;100.00;100903.19;5066038;28;19942;-78
2021/12/25 12:49:24;;;;;;;;;;;;;;;-0.59;100.00;100885.59;5075122;28;19924;-78
2021/12/25 12:52:09;;;;;;;;;;;;;;;-0.47;100.00;100893.44;5053219;28;19982;-78
2021/12/25 12:54:43;;;;;;;;;;;;;;;-0.44;100.00;100881.66;5054990;28;20019;-77
2021/12/25 12:57:09;;;;;;;;;;;;;;;-0.37;100.00;100883.97;5060849;28;19928;-77
2021/12/25 12:59:46;;;;;;;;;;;;;;;-0.34;100.00;100884.97;5061658;28;19924;-77
2021/12/25 13:02:11;;;;;;;;;;;;;;;-0.32;100.00;100897.25;5063294;28;20007;-78
2021/12/25 13:04:51;;;;;;;;;;;;;;;-0.29;100.00;100886.28;5089378;28;19925;-78
2021/12/25 13:07:20;;;;;;;;;;;;;;;-0.30;100.00;100876.69;5055614;28;19916;-78
2021/12/25 13:09:54;;;;;;;;;;;;;;;-0.25;100.00;100881.47;5055587;28;20357;-78
2021/12/25 13:12:35;;;;;;;;;;;;;;;-0.30;100.00;100884.44;5070363;28;19945;-78
2021/12/25 13:15:02;;;;;;;;;;;;;;;-0.32;100.00;100888.63;5057609;28;19971;-79
2021/12/25 13:17:28;;;;;;;;;;;;;;;-0.27;100.00;100887.28;5072192;28;20033;-78
2021/12/25 13:19:54;;;;;;;;;;;;;;;-0.30;100.00;100902.56;5051719;28;19955;-78
2021/12/25 13:22:19;;;;;;;;;;;;;;;-0.26;100.00;100884.81;5076593;28;19935;-79
2021/12/25 13:24:44;;;;;;;;;;;;;;;-0.23;100.00;100897.13;5058741;28;19928;-79
2021/12/25 13:27:25;;;;;;;;;;;;;;;-0.24;100.00;100892.72;5069220;28;19989;-79
2021/12/25 13:29:52;;;;;;;;;;;;;;;-0.25;100.00;100901.25;5077440;28;20322;-76
2021/12/25 13:32:25;;;;;;;;;;;;;;;-0.24;100.00;100893.59;5078030;28;20010;-79
2021/12/25 13:34:53;;;;;;;;;;;;;;;-0.17;100.00;100905.38;5070337;28;19920;-79
2021/12/25 13:37:19;;;;;;;;;;;;;;;-0.08;100.00;100900.91;5072775;28;19920;-76
2021/12/25 13:39:44;;;;;;;;;;;;;;;-0.12;100.00;100896.28;5070636;28;19946;-78
2021/12/25 13:42:12;;;;;;;;;;;;;;;-0.14;100.00;100900.44;5073340;28;19921;-80
2021/12/25 13:44:39;;;;;;;;;;;;;;;-0.12;100.00;100903.16;5083804;28;19919;-79
2021/12/25 13:47:12;;;;;;;;;;;;;;;-0.23;100.00;100925.59;5057199;28;19928;-78
2021/12/25 13:49:50;;;;;;;;;;;;;;;-0.16;100.00;100901.09;5093614;28;19928;-77
2021/12/25 13:52:19;;;;;;;;;;;;;;;-0.20;100.00;100906.00;5097109;28;20264;-78
2021/12/25 13:54:45;;;;;;;;;;;;;;;-0.22;100.00;100907.59;5062137;28;20315;-78
2021/12/25 13:57:13;;;;;;;;;;;;;;;-0.26;100.00;100909.81;5069276;28;20040;-80
2021/12/25 13:59:39;;;;;;;;;;;;;;;-0.27;100.00;100892.47;5061751;28;19924;-79
2021/12/25 14:02:11;;;;;;;;;;;;;;;-0.34;100.00;100896.25;5077551;28;20256;-79